createdAt,value
2018-04-17T00:00:58.158Z,8.80
2018-04-17T00:03:26.546Z,8.80
2018-04-17T00:05:54.187Z,8.80
2018-04-17T00:08:21.802Z,8.80
2018-04-17T00:10:49.400Z,8.90
2018-04-17T00:13:17.010Z,8.90
2018-04-17T00:18:18.553Z,8.80
2018-04-17T00:23:18.821Z,8.80
2018-04-17T00:25:46.422Z,8.70
2018-04-17T00:28:14.018Z,8.60
2018-04-17T00:30:41.636Z,8.70
2018-04-17T00:33:09.242Z,8.80
2018-04-17T00:35:36.843Z,8.70
2018-04-17T00:38:05.283Z,8.80
2018-04-17T00:40:32.953Z,8.70
2018-04-17T00:43:01.318Z,8.80
2018-04-17T00:45:29.694Z,8.80
2018-04-17T00:47:58.066Z,8.90
2018-04-17T00:50:25.681Z,8.90
2018-04-17T00:52:53.329Z,8.90
2018-04-17T00:55:20.979Z,8.90
2018-04-17T00:57:48.574Z,8.90
2018-04-17T01:00:16.182Z,8.90
2018-04-17T01:02:43.784Z,9.00
2018-04-17T01:05:11.382Z,9.00
2018-04-17T01:07:38.992Z,9.00
2018-04-17T01:10:06.598Z,9.00
2018-04-17T01:12:34.205Z,9.00
2018-04-17T01:15:02.583Z,9.00
2018-04-17T01:17:30.178Z,9.00
2018-04-17T01:19:57.918Z,9.00
2018-04-17T01:22:25.522Z,9.00
2018-04-17T01:24:53.127Z,9.00
2018-04-17T01:27:20.723Z,8.90
2018-04-17T01:29:48.331Z,8.90
2018-04-17T01:32:16.694Z,8.70
2018-04-17T01:34:44.302Z,8.70
2018-04-17T01:37:11.911Z,8.60
2018-04-17T01:39:39.531Z,8.50
2018-04-17T01:42:07.126Z,8.40
2018-04-17T01:44:34.754Z,8.40
2018-04-17T01:47:02.386Z,8.30
2018-04-17T01:49:29.985Z,8.20
2018-04-17T01:51:57.606Z,8.10
2018-04-17T01:54:25.216Z,8.10
2018-04-17T01:56:52.838Z,8.10
2018-04-17T01:59:20.450Z,8.00
2018-04-17T02:04:51.153Z,7.80
2018-04-17T02:07:18.766Z,7.80
2018-04-17T02:09:46.366Z,7.70
2018-04-17T02:12:14.014Z,7.70
2018-04-17T02:14:41.610Z,7.70
2018-04-17T02:17:09.978Z,7.70
2018-04-17T02:19:37.590Z,7.70
2018-04-17T02:22:05.191Z,7.70
2018-04-17T02:24:32.791Z,7.80
2018-04-17T02:27:00.410Z,7.80
2018-04-17T02:29:28.015Z,7.80
2018-04-17T02:31:55.634Z,7.90
2018-04-17T02:34:23.271Z,8.00
2018-04-17T02:36:50.868Z,8.00
2018-04-17T02:39:19.245Z,8.10
2018-04-17T02:41:47.627Z,8.10
2018-04-17T02:44:15.997Z,8.20
2018-04-17T02:46:43.601Z,8.20
2018-04-17T02:49:11.207Z,8.30
2018-04-17T02:51:39.710Z,8.20
2018-04-17T02:54:08.073Z,8.30
2018-04-17T02:56:35.686Z,8.40
2018-04-17T02:59:03.286Z,8.40
2018-04-17T03:01:30.886Z,8.40
2018-04-17T03:03:58.490Z,8.40
2018-04-17T03:06:26.093Z,8.50
2018-04-17T03:08:53.730Z,8.60
2018-04-17T03:11:21.353Z,8.60
2018-04-17T03:13:48.978Z,8.60
2018-04-17T03:16:17.354Z,8.60
2018-04-17T03:18:45.726Z,8.60
2018-04-17T03:21:14.087Z,8.50
2018-04-17T03:23:41.699Z,8.50
2018-04-17T03:26:09.309Z,8.50
2018-04-17T03:28:36.920Z,8.50
2018-04-17T03:31:04.515Z,8.40
2018-04-17T03:33:32.130Z,8.40
2018-04-17T03:35:59.730Z,8.40
2018-04-17T03:38:27.327Z,8.40
2018-04-17T03:40:55.731Z,8.50
2018-04-17T03:43:23.326Z,8.50
2018-04-17T03:45:50.918Z,8.60
2018-04-17T03:48:19.327Z,8.60
2018-04-17T03:50:46.923Z,8.60
2018-04-17T03:53:14.525Z,8.60
2018-04-17T03:55:42.903Z,8.60
2018-04-17T03:58:11.267Z,8.60
2018-04-17T04:00:38.882Z,8.60
2018-04-17T04:03:06.486Z,8.70
2018-04-17T04:05:34.085Z,8.80
2018-04-17T04:08:01.693Z,8.80
2018-04-17T04:12:52.165Z,8.90
2018-04-17T04:15:19.754Z,8.90
2018-04-17T04:17:59.216Z,8.90
2018-04-17T04:20:39.310Z,9.00
2018-04-17T04:23:18.690Z,9.00
2018-04-17T04:29:08.472Z,9.00
2018-04-17T04:31:36.078Z,9.00
2018-04-17T04:34:03.686Z,9.00
2018-04-17T04:36:31.333Z,8.90
2018-04-17T04:38:58.925Z,8.90
2018-04-17T04:41:26.531Z,9.00
2018-04-17T04:43:54.143Z,9.00
2018-04-17T04:46:21.763Z,8.90
2018-04-17T04:48:49.382Z,8.80
2018-04-17T04:51:17.031Z,8.70
2018-04-17T04:53:44.657Z,8.60
2018-04-17T04:56:12.277Z,8.60
2018-04-17T04:58:40.675Z,8.50
2018-04-17T05:01:08.274Z,8.50
2018-04-17T05:03:35.876Z,8.50
2018-04-17T05:06:04.331Z,8.40
2018-04-17T05:08:31.935Z,8.40
2018-04-17T05:10:59.546Z,8.40
2018-04-17T05:13:27.158Z,8.40
2018-04-17T05:15:54.785Z,8.30
2018-04-17T05:18:22.415Z,8.30
2018-04-17T05:20:50.047Z,8.20
2018-04-17T05:23:17.658Z,8.20
2018-04-17T05:25:45.258Z,8.10
2018-04-17T05:28:12.877Z,8.10
2018-04-17T05:30:40.530Z,8.10
2018-04-17T05:33:08.130Z,8.10
2018-04-17T05:35:36.527Z,8.10
2018-04-17T05:38:04.138Z,8.00
2018-04-17T05:40:31.739Z,8.10
2018-04-17T05:42:59.358Z,8.10
2018-04-17T05:45:26.957Z,8.10
2018-04-17T05:47:54.563Z,8.10
2018-04-17T05:50:22.194Z,8.10
2018-04-17T05:52:49.797Z,8.10
2018-04-17T05:55:17.401Z,8.10
2018-04-17T05:57:45.013Z,8.20
2018-04-17T06:00:12.608Z,8.20
2018-04-17T06:02:40.980Z,8.30
2018-04-17T06:05:09.391Z,8.30
2018-04-17T06:07:36.990Z,8.30
2018-04-17T06:10:04.594Z,8.30
2018-04-17T06:12:32.210Z,8.40
2018-04-17T06:14:59.806Z,8.40
2018-04-17T06:17:27.411Z,8.40
2018-04-17T06:19:55.022Z,8.50
2018-04-17T06:22:24.031Z,8.60
2018-04-17T06:24:51.636Z,8.60
2018-04-17T06:27:19.254Z,8.60
2018-04-17T06:29:46.867Z,8.60
2018-04-17T06:32:14.466Z,8.50
2018-04-17T06:34:42.845Z,8.60
2018-04-17T06:37:10.496Z,8.60
2018-04-17T06:39:38.099Z,8.60
2018-04-17T06:42:05.810Z,8.60
2018-04-17T06:44:34.166Z,8.60
2018-04-17T06:47:01.763Z,8.60
2018-04-17T06:49:30.135Z,8.60
2018-04-17T06:51:57.767Z,8.50
2018-04-17T06:54:26.322Z,8.50
2018-04-17T06:56:53.938Z,8.50
2018-04-17T06:59:22.298Z,8.50
2018-04-17T07:01:49.899Z,8.50
2018-04-17T07:04:17.508Z,8.50
2018-04-17T07:06:45.134Z,8.50
2018-04-17T07:09:12.739Z,8.40
2018-04-17T07:11:40.403Z,8.40
2018-04-17T07:14:07.984Z,8.30
2018-04-17T07:16:35.591Z,8.20
2018-04-17T07:19:03.982Z,8.30
2018-04-17T07:21:33.118Z,8.20
2018-04-17T07:24:00.725Z,8.20
2018-04-17T07:26:28.388Z,8.10
2018-04-17T07:28:56.012Z,8.20
2018-04-17T07:31:23.610Z,8.20
2018-04-17T07:33:51.218Z,8.20
2018-04-17T07:36:19.573Z,8.00
2018-04-17T07:38:47.208Z,8.00
2018-04-17T07:41:14.868Z,8.00
2018-04-17T07:43:42.466Z,8.10
2018-04-17T07:46:10.071Z,8.10
2018-04-17T07:48:49.568Z,8.00
2018-04-17T07:51:17.932Z,8.10
2018-04-17T07:53:45.538Z,8.00
2018-04-17T07:56:13.146Z,8.10
2018-04-17T07:58:40.752Z,8.10
2018-04-17T08:01:09.155Z,8.20
2018-04-17T08:03:36.787Z,8.20
2018-04-17T08:06:04.391Z,8.20
2018-04-17T08:08:32.007Z,8.30
2018-04-17T08:10:59.631Z,8.30
2018-04-17T08:13:27.230Z,8.50
2018-04-17T08:15:54.827Z,8.50
2018-04-17T08:18:22.471Z,8.70
2018-04-17T08:20:50.074Z,8.70
2018-04-17T08:23:17.675Z,8.60
2018-04-17T08:25:45.293Z,8.60
2018-04-17T08:28:12.909Z,8.70
2018-04-17T08:30:40.510Z,8.70
2018-04-17T08:33:08.139Z,8.80
2018-04-17T08:35:35.789Z,8.80
2018-04-17T08:38:03.414Z,8.90
2018-04-17T08:40:32.541Z,9.10
2018-04-17T08:43:00.138Z,9.00
2018-04-17T08:45:27.787Z,9.10
2018-04-17T08:47:55.431Z,9.20
2018-04-17T08:50:23.054Z,9.30
2018-04-17T08:52:51.410Z,9.20
2018-04-17T08:55:19.062Z,9.20
2018-04-17T08:57:46.661Z,9.30
2018-04-17T09:00:15.022Z,9.40
2018-04-17T09:02:42.658Z,9.30
2018-04-17T09:05:10.326Z,9.40
2018-04-17T09:07:37.986Z,9.50
2018-04-17T09:10:05.626Z,9.50
2018-04-17T09:12:33.293Z,9.40
2018-04-17T09:15:00.897Z,9.40
2018-04-17T09:17:28.493Z,9.50
2018-04-17T09:19:56.082Z,9.60
2018-04-17T09:22:23.683Z,9.70
2018-04-17T09:24:52.058Z,9.70
2018-04-17T09:27:20.420Z,9.70
2018-04-17T09:29:48.782Z,9.90
2018-04-17T09:32:16.403Z,9.90
2018-04-17T09:34:44.004Z,9.90
2018-04-17T09:37:11.647Z,10.00
2018-04-17T09:39:39.255Z,10.00
2018-04-17T09:42:06.870Z,10.00
2018-04-17T09:44:34.715Z,10.00
2018-04-17T09:47:02.329Z,10.00
2018-04-17T09:49:29.938Z,9.90
2018-04-17T09:51:57.542Z,9.90
2018-04-17T09:54:25.159Z,9.90
2018-04-17T09:56:52.795Z,10.00
2018-04-17T09:59:20.414Z,10.00
2018-04-17T10:01:48.026Z,9.80
2018-04-17T10:04:15.626Z,9.90
2018-04-17T10:06:43.221Z,9.70
2018-04-17T10:09:11.606Z,9.60
2018-04-17T10:11:39.206Z,9.60
2018-04-17T10:14:06.818Z,9.60
2018-04-17T10:16:35.218Z,9.80
2018-04-17T10:19:02.826Z,9.80
2018-04-17T10:21:30.467Z,10.00
2018-04-17T10:23:58.082Z,10.20
2018-04-17T10:26:26.463Z,10.30
2018-04-17T10:28:54.851Z,10.20
2018-04-17T10:31:22.469Z,10.20
2018-04-17T10:33:50.083Z,10.40
2018-04-17T10:36:17.733Z,10.40
2018-04-17T10:38:45.358Z,10.40
2018-04-17T10:41:12.991Z,10.50
2018-04-17T10:43:40.597Z,10.70
2018-04-17T10:46:08.216Z,10.90
2018-04-17T10:48:35.837Z,11.00
2018-04-17T10:51:03.452Z,11.00
2018-04-17T10:53:31.066Z,10.90
2018-04-17T10:55:58.670Z,10.90
2018-04-17T10:58:26.278Z,11.20
2018-04-17T11:00:53.890Z,11.30
2018-04-17T11:03:21.499Z,11.30
2018-04-17T11:05:49.155Z,11.30
2018-04-17T11:08:16.778Z,11.40
2018-04-17T11:10:44.410Z,11.40
2018-04-17T11:13:12.017Z,11.40
2018-04-17T11:15:39.741Z,11.50
2018-04-17T11:18:07.338Z,11.50
2018-04-17T11:20:35.707Z,11.50
2018-04-17T11:23:03.346Z,11.40
2018-04-17T11:25:30.946Z,11.40
2018-04-17T11:27:58.593Z,11.30
2018-04-17T11:30:26.238Z,11.50
2018-04-17T11:32:53.849Z,11.50
2018-04-17T11:35:21.486Z,11.50
2018-04-17T11:37:49.868Z,11.60
2018-04-17T11:40:18.238Z,11.70
2018-04-17T11:42:45.860Z,11.60
2018-04-17T11:45:13.466Z,11.60
2018-04-17T11:47:41.866Z,11.40
2018-04-17T11:50:09.493Z,11.40
2018-04-17T11:52:37.866Z,11.30
2018-04-17T11:55:05.531Z,11.30
2018-04-17T11:57:33.208Z,11.20
2018-04-17T12:00:01.582Z,11.40
2018-04-17T12:02:29.949Z,11.50
2018-04-17T12:04:57.560Z,11.50
2018-04-17T12:07:25.177Z,11.50
2018-04-17T12:09:53.551Z,11.60
2018-04-17T12:12:21.915Z,11.70
2018-04-17T12:14:49.522Z,11.70
2018-04-17T12:17:17.137Z,11.80
2018-04-17T12:19:44.738Z,11.80
2018-04-17T12:22:12.353Z,11.80
2018-04-17T12:24:39.984Z,11.70
2018-04-17T12:27:07.581Z,11.50
2018-04-17T12:29:35.197Z,11.70
2018-04-17T12:32:03.575Z,11.60
2018-04-17T12:34:31.198Z,11.60
2018-04-17T12:36:59.590Z,11.60
2018-04-17T12:39:27.191Z,11.60
2018-04-17T12:41:54.795Z,11.60
2018-04-17T12:44:22.470Z,11.50
2018-04-17T12:46:50.106Z,11.60
2018-04-17T12:49:17.723Z,11.60
2018-04-17T12:51:46.116Z,11.50
2018-04-17T12:54:13.800Z,11.40
2018-04-17T12:56:41.422Z,11.40
2018-04-17T12:59:09.038Z,11.60
2018-04-17T13:01:37.409Z,11.70
2018-04-17T13:04:05.781Z,11.70
2018-04-17T13:06:33.450Z,11.70
2018-04-17T13:09:01.063Z,11.70
2018-04-17T13:11:29.432Z,11.80
2018-04-17T13:13:57.117Z,11.80
2018-04-17T13:16:24.719Z,11.80
2018-04-17T13:18:52.373Z,11.90
2018-04-17T13:21:20.757Z,12.00
2018-04-17T13:23:49.146Z,12.00
2018-04-17T13:26:16.778Z,12.00
2018-04-17T13:28:44.390Z,12.20
2018-04-17T13:31:12.034Z,12.50
2018-04-17T13:33:39.636Z,12.60
2018-04-17T13:36:07.262Z,12.60
2018-04-17T13:38:34.874Z,12.70
2018-04-17T13:41:02.490Z,12.70
2018-04-17T13:43:30.105Z,12.70
2018-04-17T13:45:57.720Z,12.60
2018-04-17T13:48:25.332Z,12.60
2018-04-17T13:50:52.945Z,12.70
2018-04-17T13:53:21.376Z,13.40
2018-04-17T13:55:49.746Z,13.40
2018-04-17T13:58:18.163Z,13.10
2018-04-17T14:00:45.780Z,13.10
2018-04-17T14:03:13.387Z,12.90
2018-04-17T14:05:41.002Z,12.80
2018-04-17T14:08:08.642Z,13.10
2018-04-17T14:10:36.250Z,13.20
2018-04-17T14:13:03.866Z,13.00
2018-04-17T14:15:31.466Z,13.10
2018-04-17T14:17:59.079Z,13.00
2018-04-17T14:20:26.699Z,12.90
2018-04-17T14:22:54.428Z,12.90
2018-04-17T14:25:22.038Z,12.90
2018-04-17T14:27:49.652Z,13.00
2018-04-17T14:30:17.264Z,12.90
2018-04-17T14:32:44.874Z,12.80
2018-04-17T14:35:12.497Z,12.70
2018-04-17T14:37:40.099Z,12.70
2018-04-17T14:40:07.750Z,12.70
2018-04-17T14:42:35.371Z,12.70
2018-04-17T14:45:03.009Z,12.60
2018-04-17T14:47:30.625Z,12.60
2018-04-17T14:49:58.257Z,12.40
2018-04-17T14:52:25.866Z,12.50
2018-04-17T14:54:54.229Z,12.60
2018-04-17T14:57:21.866Z,12.60
2018-04-17T14:59:49.547Z,12.90
2018-04-17T15:02:17.146Z,13.10
2018-04-17T15:04:44.778Z,12.90
2018-04-17T15:07:13.165Z,12.60
2018-04-17T15:09:40.785Z,12.60
2018-04-17T15:12:08.400Z,12.50
2018-04-17T15:14:36.010Z,12.10
2018-04-17T15:17:04.754Z,11.60
2018-04-17T15:19:32.479Z,11.60
2018-04-17T15:22:00.105Z,11.40
2018-04-17T15:24:27.759Z,11.20
2018-04-17T15:26:55.393Z,11.10
2018-04-17T15:29:23.814Z,11.10
2018-04-17T15:31:51.471Z,11.10
2018-04-17T15:34:19.112Z,11.20
2018-04-17T15:36:46.719Z,11.30
2018-04-17T15:39:14.319Z,11.30
2018-04-17T15:41:41.926Z,11.60
2018-04-17T15:44:09.522Z,11.80
2018-04-17T15:46:37.928Z,12.20
2018-04-17T15:49:05.602Z,12.20
2018-04-17T15:51:33.206Z,12.50
2018-04-17T15:54:00.817Z,12.50
2018-04-17T15:56:28.427Z,12.50
2018-04-17T15:58:56.034Z,12.60
2018-04-17T16:01:23.634Z,12.60
2018-04-17T16:03:51.250Z,12.40
2018-04-17T16:06:18.846Z,12.30
2018-04-17T16:08:46.474Z,12.10
2018-04-17T16:11:14.123Z,12.10
2018-04-17T16:13:41.722Z,12.00
2018-04-17T16:16:09.326Z,11.90
2018-04-17T16:18:36.982Z,11.80
2018-04-17T16:21:05.354Z,11.50
2018-04-17T16:23:32.954Z,11.50
2018-04-17T16:26:00.590Z,11.50
2018-04-17T16:28:28.958Z,11.50
2018-04-17T16:30:57.438Z,11.50
2018-04-17T16:33:25.831Z,11.50
2018-04-17T16:35:54.278Z,11.40
2018-04-17T16:38:21.900Z,11.40
2018-04-17T16:40:49.562Z,11.30
2018-04-17T16:43:17.251Z,11.20
2018-04-17T16:45:44.949Z,11.10
2018-04-17T16:48:13.346Z,11.00
2018-04-17T16:50:40.966Z,11.00
2018-04-17T16:53:08.591Z,11.10
2018-04-17T16:55:36.247Z,11.10
2018-04-17T16:58:03.890Z,11.10
2018-04-17T17:00:31.558Z,11.00
2018-04-17T17:02:59.300Z,11.00
2018-04-17T17:05:27.727Z,10.90
2018-04-17T17:07:55.330Z,10.90
2018-04-17T17:10:23.777Z,10.80
2018-04-17T17:12:51.435Z,10.80
2018-04-17T17:15:19.057Z,10.70
2018-04-17T17:17:46.786Z,10.60
2018-04-17T17:20:14.453Z,10.50
2018-04-17T17:22:42.861Z,10.40
2018-04-17T17:25:10.590Z,10.40
2018-04-17T17:27:38.195Z,10.30
2018-04-17T17:30:05.806Z,10.30
2018-04-17T17:32:33.567Z,10.20
2018-04-17T17:35:01.765Z,10.10
2018-04-17T17:37:30.174Z,9.90
2018-04-17T17:39:57.846Z,9.90
2018-04-17T17:42:25.445Z,9.90
2018-04-17T17:44:53.050Z,9.80
2018-04-17T17:47:20.747Z,9.70
2018-04-17T17:49:48.473Z,9.60
2018-04-17T17:52:16.114Z,9.40
2018-04-17T17:54:44.531Z,9.30
2018-04-17T17:57:12.187Z,9.30
2018-04-17T17:59:39.845Z,9.20
2018-04-17T18:02:07.498Z,9.20
2018-04-17T18:04:35.091Z,9.10
2018-04-17T18:07:02.767Z,8.90
2018-04-17T18:09:30.382Z,8.90
2018-04-17T18:11:58.749Z,8.70
2018-04-17T18:14:26.359Z,8.70
2018-04-17T18:16:53.990Z,8.70
2018-04-17T18:19:21.598Z,8.60
2018-04-17T18:21:49.217Z,8.60
2018-04-17T18:24:16.827Z,8.60
2018-04-17T18:26:44.439Z,8.60
2018-04-17T18:29:12.036Z,8.60
2018-04-17T18:31:39.670Z,8.70
2018-04-17T18:34:07.266Z,8.70
2018-04-17T18:36:35.638Z,8.70
2018-04-17T18:39:03.347Z,8.70
2018-04-17T18:41:30.951Z,8.70
2018-04-17T18:43:58.556Z,8.70
2018-04-17T18:46:26.252Z,8.70
2018-04-17T18:48:53.857Z,8.60
2018-04-17T18:51:21.457Z,8.70
2018-04-17T18:53:49.068Z,8.60
2018-04-17T18:56:16.712Z,8.60
2018-04-17T18:58:44.380Z,8.50
2018-04-17T19:01:11.986Z,8.50
2018-04-17T19:03:39.587Z,8.50
2018-04-17T19:06:07.192Z,8.40
2018-04-17T19:08:34.877Z,8.40
2018-04-17T19:11:02.527Z,8.40
2018-04-17T19:13:30.118Z,8.40
2018-04-17T19:15:57.722Z,8.40
2018-04-17T19:18:25.327Z,8.40
2018-04-17T19:20:52.918Z,8.40
2018-04-17T19:23:20.571Z,8.40
2018-04-17T19:25:48.170Z,8.40
2018-04-17T19:28:16.534Z,8.40
2018-04-17T19:30:44.197Z,8.40
2018-04-17T19:33:11.842Z,8.40
2018-04-17T19:35:39.446Z,8.40
2018-04-17T19:38:07.150Z,8.40
2018-04-17T19:40:34.742Z,8.40
2018-04-17T19:43:02.367Z,8.40
2018-04-17T19:45:30.033Z,8.40
2018-04-17T19:47:57.609Z,8.30
2018-04-17T19:50:25.215Z,8.40
2018-04-17T19:52:52.826Z,8.30
2018-04-17T19:55:20.426Z,8.30
2018-04-17T19:57:48.057Z,8.30
2018-04-17T20:00:15.678Z,8.30
2018-04-17T20:02:43.281Z,8.30
2018-04-17T20:05:11.152Z,8.30
2018-04-17T20:07:38.762Z,8.30
2018-04-17T20:10:06.357Z,8.20
2018-04-17T20:12:33.994Z,8.20
2018-04-17T20:15:01.628Z,8.10
2018-04-17T20:17:29.234Z,8.10
2018-04-17T20:19:56.881Z,8.10
2018-04-17T20:22:24.491Z,8.10
2018-04-17T20:24:52.097Z,8.10
2018-04-17T20:27:19.697Z,8.20
2018-04-17T20:29:48.103Z,8.20
2018-04-17T20:32:15.717Z,8.20
2018-04-17T20:34:43.322Z,8.20
2018-04-17T20:37:10.940Z,8.20
2018-04-17T20:39:38.543Z,8.30
2018-04-17T20:42:06.139Z,8.30
2018-04-17T20:44:33.762Z,8.30
2018-04-17T20:47:01.362Z,8.30
2018-04-17T20:49:28.959Z,8.40
2018-04-17T20:51:56.594Z,8.40
2018-04-17T20:54:24.235Z,8.40
2018-04-17T20:56:51.858Z,8.40
2018-04-17T20:59:19.493Z,8.40
2018-04-17T21:01:47.138Z,8.40
2018-04-17T21:04:14.738Z,8.40
2018-04-17T21:06:42.342Z,8.40
2018-04-17T21:09:09.938Z,8.40
2018-04-17T21:11:37.539Z,8.40
2018-04-17T21:14:05.145Z,8.30
2018-04-17T21:16:34.270Z,8.20
2018-04-17T21:19:02.634Z,8.20
2018-04-17T21:21:31.010Z,8.20
2018-04-17T21:23:59.382Z,8.10
2018-04-17T21:26:26.999Z,8.10
2018-04-17T21:28:54.628Z,8.00
2018-04-17T21:31:22.227Z,7.90
2018-04-17T21:33:49.822Z,7.80
2018-04-17T21:36:17.442Z,7.80
2018-04-17T21:38:45.039Z,7.70
2018-04-17T21:41:12.666Z,7.70
2018-04-17T21:43:40.307Z,7.70
2018-04-17T21:46:07.903Z,7.60
2018-04-17T21:48:35.497Z,7.50
2018-04-17T21:51:03.131Z,7.40
2018-04-17T21:53:30.735Z,7.40
2018-04-17T21:55:58.336Z,7.40
2018-04-17T21:58:26.758Z,7.20
2018-04-17T22:00:54.385Z,7.20
2018-04-17T22:03:21.982Z,7.20
2018-04-17T22:05:50.384Z,7.20
2018-04-17T22:08:18.002Z,7.20
2018-04-17T22:10:45.626Z,7.20
2018-04-17T22:13:13.243Z,7.20
2018-04-17T22:15:40.845Z,7.10
2018-04-17T22:18:08.455Z,7.00
2018-04-17T22:20:36.066Z,7.10
2018-04-17T22:23:03.675Z,7.10
2018-04-17T22:25:31.318Z,7.10
2018-04-17T22:27:58.934Z,7.10
2018-04-17T22:30:26.534Z,7.10
2018-04-17T22:32:54.154Z,7.20
2018-04-17T22:35:21.771Z,7.20
2018-04-17T22:37:49.393Z,7.30
2018-04-17T22:40:17.003Z,7.30
2018-04-17T22:42:45.399Z,7.50
2018-04-17T22:45:13.027Z,7.50
2018-04-17T22:47:40.633Z,7.60
2018-04-17T22:50:08.319Z,7.60
2018-04-17T22:52:35.929Z,7.70
2018-04-17T22:55:03.528Z,7.80
2018-04-17T22:57:31.150Z,7.80
2018-04-17T22:59:58.762Z,7.80
2018-04-17T23:02:26.378Z,7.90
2018-04-17T23:04:53.990Z,7.90
2018-04-17T23:07:21.606Z,7.80
2018-04-17T23:09:49.202Z,7.90
2018-04-17T23:12:16.809Z,7.80
2018-04-17T23:14:44.420Z,7.80
2018-04-17T23:17:12.028Z,7.80
2018-04-17T23:19:39.645Z,7.80
2018-04-17T23:22:07.239Z,7.70
2018-04-17T23:24:34.850Z,7.70
2018-04-17T23:27:02.464Z,7.70
2018-04-17T23:29:30.094Z,7.70
2018-04-17T23:31:57.706Z,7.70
2018-04-17T23:34:25.334Z,7.70
2018-04-17T23:36:52.934Z,7.80
2018-04-17T23:39:21.302Z,7.80
2018-04-17T23:41:48.914Z,7.80
2018-04-17T23:44:16.510Z,7.80
2018-04-17T23:46:44.144Z,7.70
2018-04-17T23:49:11.762Z,7.70
2018-04-17T23:51:39.358Z,7.70
2018-04-17T23:54:06.950Z,7.80
2018-04-17T23:56:34.575Z,7.80
2018-04-17T23:59:02.173Z,7.80
